createdAt,value
2023-02-11T00:02:59.676Z,17.20
2023-02-11T00:08:01.014Z,15.87
2023-02-11T00:13:02.268Z,16.65
2023-02-11T00:18:03.593Z,16.63
2023-02-11T00:23:05.009Z,16.77
2023-02-11T00:28:06.373Z,16.80
2023-02-11T00:33:07.680Z,16.30
2023-02-11T00:38:08.958Z,16.00
2023-02-11T00:43:10.266Z,17.17
2023-02-11T00:48:11.562Z,16.70
2023-02-11T00:53:12.879Z,15.27
2023-02-11T00:58:14.162Z,15.93
2023-02-11T01:03:15.646Z,15.80
2023-02-11T01:08:16.941Z,14.15
2023-02-11T01:13:18.212Z,15.77
2023-02-11T01:18:19.870Z,14.75
2023-02-11T01:23:21.617Z,13.97
2023-02-11T01:28:24.352Z,15.15
2023-02-11T01:33:25.745Z,14.73
2023-02-11T01:38:27.011Z,11.77
2023-02-11T01:43:31.043Z,13.93
2023-02-11T01:48:38.172Z,13.07
2023-02-11T01:53:58.455Z,13.30
2023-02-11T01:59:02.721Z,12.55
2023-02-11T02:04:05.287Z,12.57
2023-02-11T02:09:09.149Z,12.05
2023-02-11T02:14:10.467Z,12.23
2023-02-11T02:19:30.677Z,13.00
2023-02-11T02:24:56.713Z,12.43
2023-02-11T02:29:57.943Z,12.87
2023-02-11T02:35:10.509Z,12.85
2023-02-11T02:40:14.839Z,11.67
2023-02-11T02:45:16.465Z,11.50
2023-02-11T02:50:19.580Z,11.05
2023-02-11T02:55:44.265Z,11.30
2023-02-11T03:00:48.366Z,11.10
2023-02-11T03:05:54.463Z,9.87
2023-02-11T03:10:56.674Z,9.70
2023-02-11T03:15:58.666Z,9.32
2023-02-11T03:21:00.615Z,9.93
2023-02-11T03:26:10.700Z,10.75
2023-02-11T03:31:32.605Z,10.37
2023-02-11T03:36:47.207Z,9.77
2023-02-11T03:41:49.316Z,9.68
2023-02-11T03:46:52.289Z,11.03
2023-02-11T03:51:54.829Z,11.15
2023-02-11T03:56:57.678Z,9.43
2023-02-11T04:01:59.572Z,9.05
2023-02-11T04:07:00.862Z,8.45
2023-02-11T04:12:02.186Z,8.63
2023-02-11T04:17:03.500Z,9.05
2023-02-11T04:22:04.899Z,8.63
2023-02-11T04:27:06.216Z,10.15
2023-02-11T04:32:07.613Z,9.27
2023-02-11T04:37:08.932Z,8.60
2023-02-11T04:42:10.222Z,8.38
2023-02-11T04:47:13.453Z,9.07
2023-02-11T04:52:14.736Z,8.35
2023-02-11T04:57:15.991Z,7.95
2023-02-11T05:02:17.334Z,6.93
2023-02-11T05:07:18.622Z,7.63
2023-02-11T05:12:19.913Z,7.20
2023-02-11T05:17:21.195Z,7.55
2023-02-11T05:22:22.491Z,6.90
2023-02-11T05:27:23.756Z,6.93
2023-02-11T05:32:25.079Z,6.60
2023-02-11T05:37:26.452Z,7.37
2023-02-11T05:42:27.819Z,6.65
2023-02-11T05:47:29.172Z,6.80
2023-02-11T05:52:30.458Z,6.70
2023-02-11T05:57:31.779Z,7.18
2023-02-11T06:02:33.722Z,7.33
2023-02-11T06:07:35.149Z,7.10
2023-02-11T06:12:36.944Z,7.97
2023-02-11T06:17:38.279Z,7.20
2023-02-11T06:22:39.593Z,8.00
2023-02-11T06:27:41.096Z,7.60
2023-02-11T06:32:44.841Z,7.05
2023-02-11T06:37:47.888Z,7.53
2023-02-11T06:42:49.178Z,7.70
2023-02-11T06:47:51.636Z,8.20
2023-02-11T06:52:52.922Z,8.03
2023-02-11T06:57:54.190Z,11.80
2023-02-11T07:02:55.495Z,10.10
2023-02-11T07:07:56.977Z,11.87
2023-02-11T07:12:58.893Z,8.90
2023-02-11T07:18:00.251Z,10.43
2023-02-11T07:23:01.552Z,9.23
2023-02-11T07:28:03.618Z,10.60
2023-02-11T07:33:04.901Z,9.77
2023-02-11T07:38:06.147Z,14.30
2023-02-11T07:43:07.551Z,13.23
2023-02-11T07:48:08.848Z,12.55
2023-02-11T07:53:10.188Z,16.08
2023-02-11T07:58:11.490Z,19.30
2023-02-11T08:03:12.775Z,18.80
2023-02-11T08:08:14.072Z,18.77
2023-02-11T08:13:15.362Z,13.65
2023-02-11T08:18:16.607Z,13.15
2023-02-11T08:23:17.897Z,16.13
2023-02-11T08:28:19.201Z,13.18
2023-02-11T08:33:20.482Z,14.37
2023-02-11T08:38:21.735Z,13.05
2023-02-11T08:43:23.539Z,15.07
2023-02-11T08:48:24.869Z,14.07
2023-02-11T08:53:26.491Z,14.43
2023-02-11T08:58:27.798Z,14.70
2023-02-11T09:03:29.699Z,13.50
2023-02-11T09:08:30.989Z,10.65
2023-02-11T09:13:32.695Z,8.17
2023-02-11T09:18:34.371Z,5.72
2023-02-11T09:23:35.783Z,5.60
2023-02-11T09:28:37.132Z,5.25
2023-02-11T09:33:39.477Z,4.97
2023-02-11T09:38:40.761Z,4.37
2023-02-11T09:43:46.084Z,4.88
2023-02-11T09:48:49.056Z,4.47
2023-02-11T09:53:54.178Z,5.88
2023-02-11T09:58:55.471Z,6.22
2023-02-11T10:04:02.971Z,5.00
2023-02-11T10:09:04.322Z,5.15
2023-02-11T10:14:24.461Z,6.00
2023-02-11T10:19:50.480Z,7.00
2023-02-11T10:24:58.296Z,6.93
2023-02-11T10:30:15.986Z,6.83
2023-02-11T10:35:19.427Z,6.60
2023-02-11T10:40:28.043Z,6.90
2023-02-11T10:45:39.876Z,6.60
2023-02-11T10:50:41.131Z,5.90
2023-02-11T10:55:52.764Z,6.63
2023-02-11T11:00:55.544Z,6.32
2023-02-11T11:06:05.370Z,6.30
2023-02-11T11:11:10.755Z,5.00
2023-02-11T11:16:12.044Z,6.00
2023-02-11T11:21:21.636Z,5.67
2023-02-11T11:26:23.784Z,5.85
2023-02-11T11:31:28.489Z,5.40
2023-02-11T11:36:34.974Z,5.72
2023-02-11T11:41:36.268Z,6.95
2023-02-11T11:46:41.011Z,6.87
2023-02-11T11:51:44.605Z,5.80
2023-02-11T11:56:50.967Z,6.70
2023-02-11T12:02:08.664Z,6.70
2023-02-11T12:07:25.791Z,6.75
2023-02-11T12:12:35.836Z,8.70
2023-02-11T12:17:46.402Z,9.20
2023-02-11T12:22:47.700Z,8.47
2023-02-11T12:28:01.445Z,7.97
2023-02-11T12:33:08.739Z,8.07
2023-02-11T12:38:21.573Z,12.03
2023-02-11T12:43:26.514Z,9.00
2023-02-11T12:48:27.811Z,8.20
2023-02-11T12:53:37.644Z,8.98
2023-02-11T12:58:47.075Z,8.07
2023-02-11T13:03:52.381Z,9.00
2023-02-11T13:08:55.871Z,8.52
2023-02-11T13:14:00.674Z,8.60
2023-02-11T13:19:03.213Z,9.75
2023-02-11T13:24:19.377Z,8.52
2023-02-11T13:29:31.587Z,8.90
2023-02-11T13:34:41.902Z,9.48
2023-02-11T13:39:43.183Z,11.47
2023-02-11T13:44:44.583Z,9.05
2023-02-11T13:49:51.634Z,9.10
2023-02-11T13:54:54.801Z,9.13
2023-02-11T13:59:57.480Z,10.25
2023-02-11T14:05:20.350Z,10.57
2023-02-11T14:10:40.345Z,9.93
2023-02-11T14:15:41.626Z,9.65
2023-02-11T14:20:44.036Z,9.23
2023-02-11T14:25:52.513Z,10.77
2023-02-11T14:31:23.289Z,10.10
2023-02-11T14:36:36.866Z,9.65
2023-02-11T14:41:42.860Z,9.95
2023-02-11T14:46:46.344Z,10.63
2023-02-11T14:51:47.683Z,10.27
2023-02-11T14:57:07.010Z,10.27
2023-02-11T15:02:26.102Z,9.93
2023-02-11T15:07:27.607Z,11.70
2023-02-11T15:12:29.060Z,9.77
2023-02-11T15:17:31.786Z,10.43
2023-02-11T15:22:36.491Z,10.70
2023-02-11T15:27:39.196Z,9.90
2023-02-11T15:32:43.617Z,9.73
2023-02-11T15:37:45.077Z,10.40
2023-02-11T15:42:58.504Z,11.65
2023-02-11T15:48:05.532Z,10.93
2023-02-11T15:53:25.296Z,12.05
2023-02-11T15:58:26.732Z,10.35
2023-02-11T16:03:32.331Z,11.03
2023-02-11T16:08:35.420Z,12.25
2023-02-11T16:13:46.834Z,16.73
2023-02-11T16:19:04.747Z,13.02
2023-02-11T16:24:07.939Z,12.55
2023-02-11T16:29:22.527Z,12.93
2023-02-11T16:34:24.953Z,12.65
2023-02-11T16:39:26.245Z,12.57
2023-02-11T16:44:27.721Z,12.48
2023-02-11T16:49:40.722Z,15.02
2023-02-11T16:54:42.396Z,15.30
2023-02-11T16:59:44.092Z,16.35
2023-02-11T17:04:45.719Z,16.50
2023-02-11T17:09:47.049Z,16.38
2023-02-11T17:14:48.494Z,15.55
2023-02-11T17:19:51.062Z,16.13
2023-02-11T17:24:52.386Z,18.73
2023-02-11T17:29:53.712Z,23.20
2023-02-11T17:34:54.991Z,17.80
2023-02-11T17:39:56.285Z,16.90
2023-02-11T17:44:57.576Z,13.10
2023-02-11T17:49:59.105Z,13.88
2023-02-11T17:55:00.488Z,14.73
2023-02-11T18:00:01.908Z,12.75
2023-02-11T18:05:03.574Z,12.65
2023-02-11T18:10:05.897Z,12.73
2023-02-11T18:15:07.216Z,14.98
2023-02-11T18:20:08.908Z,13.33
2023-02-11T18:25:12.192Z,15.88
2023-02-11T18:30:17.521Z,14.35
2023-02-11T18:35:20.059Z,14.67
2023-02-11T18:40:21.460Z,19.52
2023-02-11T18:45:23.907Z,17.87
2023-02-11T18:50:25.163Z,17.13
2023-02-11T18:55:26.513Z,18.17
2023-02-11T19:00:27.822Z,17.03
2023-02-11T19:05:33.164Z,20.48
2023-02-11T19:10:34.754Z,21.83
2023-02-11T19:15:40.683Z,14.65
2023-02-11T19:20:42.899Z,13.85
2023-02-11T19:25:45.511Z,13.63
2023-02-11T19:30:46.897Z,13.77
2023-02-11T19:35:48.286Z,18.23
2023-02-11T19:40:58.769Z,21.77
2023-02-11T19:46:03.523Z,22.27
2023-02-11T19:51:11.406Z,17.03
2023-02-11T19:56:15.271Z,13.73
2023-02-11T20:01:19.365Z,13.33
2023-02-11T20:06:25.505Z,14.48
2023-02-11T20:11:28.309Z,16.02
2023-02-11T20:16:46.399Z,17.27
2023-02-11T20:21:50.333Z,17.08
2023-02-11T20:26:55.379Z,16.70
2023-02-11T20:31:57.157Z,16.80
2023-02-11T20:36:59.345Z,17.30
2023-02-11T20:42:00.698Z,16.77
2023-02-11T20:47:02.195Z,17.40
2023-02-11T20:52:03.513Z,16.07
2023-02-11T20:57:04.896Z,16.58
2023-02-11T21:02:06.920Z,16.85
2023-02-11T21:07:11.097Z,17.23
2023-02-11T21:12:13.086Z,17.80
2023-02-11T21:17:15.045Z,18.80
2023-02-11T21:22:16.352Z,19.15
2023-02-11T21:27:20.036Z,18.40
2023-02-11T21:32:21.331Z,15.67
2023-02-11T21:37:23.924Z,16.27
2023-02-11T21:42:25.328Z,21.20
2023-02-11T21:47:26.627Z,18.73
2023-02-11T21:52:27.896Z,18.75
2023-02-11T21:57:29.464Z,19.13
2023-02-11T22:02:30.762Z,21.90
2023-02-11T22:07:34.533Z,21.17
2023-02-11T22:12:35.845Z,19.00
2023-02-11T22:17:37.175Z,25.33
2023-02-11T22:22:38.481Z,20.73
2023-02-11T22:27:40.886Z,21.08
2023-02-11T22:32:42.538Z,20.10
2023-02-11T22:37:43.800Z,20.23
2023-02-11T22:42:45.044Z,20.92
2023-02-11T22:47:46.356Z,23.63
2023-02-11T22:52:47.660Z,20.38
2023-02-11T22:57:49.023Z,20.87
2023-02-11T23:02:50.951Z,21.15
2023-02-11T23:07:52.458Z,20.10
2023-02-11T23:12:53.787Z,19.90
2023-02-11T23:17:55.144Z,19.20
2023-02-11T23:22:56.464Z,18.30
2023-02-11T23:27:57.913Z,21.20
2023-02-11T23:32:59.294Z,20.70
2023-02-11T23:38:00.680Z,18.47
2023-02-11T23:43:02.009Z,19.48
2023-02-11T23:48:03.382Z,21.97
2023-02-11T23:53:04.697Z,20.85
2023-02-11T23:58:06.086Z,18.05
